Time;durP1;ratioP1;P1;durP2;ratioP2;P2;SDS_P1;SDS_P2;PMS_P1;PMS_P2;Temp;Humidity;BMP_temperature;BMP_pressure;BME280_temperature;BME280_humidity;BME280_pressure;Samples;Min_cycle;Max_cycle;Signal;HPM_P1;HPM_P2
2023/10/22 00:00:43;;;;;;;;;;;;;;;12.53;100.00;99641.13;5026959;28;19925;-76
2023/10/22 00:03:08;;;;;;;;;;;;;;;12.46;100.00;99648.16;5021048;28;19929;-73
2023/10/22 00:05:34;;;;;;;;;;;;;;;12.46;100.00;99648.16;5011761;28;19920;-73
2023/10/22 00:07:59;;;;;;;;;;;;;;;12.55;100.00;99666.03;5010788;28;19929;-72
2023/10/22 00:10:24;;;;;;;;;;;;;;;12.55;100.00;99652.59;5015019;28;19917;-72
2023/10/22 00:12:49;;;;;;;;;;;;;;;12.52;100.00;99658.28;5023385;28;21246;-76
2023/10/22 00:15:15;;;;;;;;;;;;;;;12.51;100.00;99659.28;5028734;28;19927;-76
2023/10/22 00:17:41;;;;;;;;;;;;;;;12.55;100.00;99663.34;5013306;28;19927;-73
2023/10/22 00:20:07;;;;;;;;;;;;;;;12.60;100.00;99650.22;5011297;28;20287;-73
2023/10/22 00:22:32;;;;;;;;;;;;;;;12.52;100.00;99673.59;5013188;28;19928;-74
2023/10/22 00:24:57;;;;;;;;;;;;;;;12.53;100.00;99673.44;5011054;28;20003;-72
2023/10/22 00:27:22;;;;;;;;;;;;;;;12.55;100.00;99660.66;5015398;28;19921;-72
2023/10/22 00:29:47;;;;;;;;;;;;;;;12.53;100.00;99694.13;5012516;28;20472;-73
2023/10/22 00:32:13;;;;;;;;;;;;;;;12.54;100.00;99675.13;5011268;28;19947;-74
2023/10/22 00:34:38;;;;;;;;;;;;;;;12.54;100.00;99695.81;5011470;28;19928;-74
2023/10/22 00:37:03;;;;;;;;;;;;;;;12.47;100.00;99682.16;5013842;28;20366;-73
2023/10/22 00:39:29;;;;;;;;;;;;;;;12.53;100.00;99683.34;5014304;28;19968;-73
2023/10/22 00:41:54;;;;;;;;;;;;;;;12.48;100.00;99683.84;5015587;28;19932;-72
2023/10/22 00:44:19;;;;;;;;;;;;;;;12.51;100.00;99694.28;5014908;28;19932;-73
2023/10/22 00:46:45;;;;;;;;;;;;;;;12.52;100.00;99698.66;5017466;28;20267;-74
2023/10/22 00:49:10;;;;;;;;;;;;;;;12.50;100.00;99697.13;5012937;28;19932;-71
2023/10/22 00:51:35;;;;;;;;;;;;;;;12.45;100.00;99700.31;5027310;28;20398;-73
2023/10/22 00:54:00;;;;;;;;;;;;;;;12.46;100.00;99683.16;5012797;28;20458;-73
2023/10/22 00:56:26;;;;;;;;;;;;;;;12.53;100.00;99683.34;5025784;28;19979;-74
2023/10/22 00:58:51;;;;;;;;;;;;;;;12.50;100.00;99691.75;5011826;28;20039;-73
2023/10/22 01:01:16;;;;;;;;;;;;;;;12.48;100.00;99685.66;5009218;28;20577;-75
2023/10/22 01:03:41;;;;;;;;;;;;;;;12.48;100.00;99678.44;5012659;28;19964;-72
2023/10/22 01:06:06;;;;;;;;;;;;;;;12.53;100.00;99683.34;5008596;28;19994;-74
2023/10/22 01:08:32;;;;;;;;;;;;;;;12.53;100.00;99713.81;5010984;28;19925;-72
2023/10/22 01:11:07;;;;;;;;;;;;;;;12.48;100.00;99700.00;5019586;28;19921;-73
2023/10/22 01:13:33;;;;;;;;;;;;;;;12.58;100.00;99706.09;5006855;28;19931;-73
2023/10/22 01:15:58;;;;;;;;;;;;;;;12.58;100.00;99716.03;5005960;28;20389;-75
2023/10/22 01:18:23;;;;;;;;;;;;;;;12.55;100.00;99700.19;5006400;28;20286;-73
2023/10/22 01:20:48;;;;;;;;;;;;;;;12.54;100.00;99711.97;5005507;28;20383;-76
2023/10/22 01:23:14;;;;;;;;;;;;;;;12.45;100.00;99711.06;5005403;28;19928;-73
2023/10/22 01:25:39;;;;;;;;;;;;;;;12.54;100.00;99734.34;5013799;28;19920;-74
2023/10/22 01:28:04;;;;;;;;;;;;;;;12.52;100.00;99717.50;5011998;28;19929;-73
2023/10/22 01:30:29;;;;;;;;;;;;;;;12.52;100.00;99724.72;5013425;28;19967;-73
2023/10/22 01:32:55;;;;;;;;;;;;;;;12.55;100.00;99744.13;5008298;28;20489;-72
2023/10/22 01:35:20;;;;;;;;;;;;;;;12.49;100.00;99742.06;5007136;28;20722;-74
2023/10/22 01:37:45;;;;;;;;;;;;;;;12.55;100.00;99745.97;5009002;28;20372;-73
2023/10/22 01:40:11;;;;;;;;;;;;;;;12.64;100.00;99742.31;5014865;28;19928;-76
2023/10/22 01:42:37;;;;;;;;;;;;;;;12.54;100.00;99755.03;5009764;28;19954;-73
2023/10/22 01:45:02;;;;;;;;;;;;;;;12.44;100.00;99763.22;5024151;28;20582;-73
2023/10/22 01:47:27;;;;;;;;;;;;;;;12.41;100.00;99755.47;5011677;28;20225;-74
2023/10/22 01:49:52;;;;;;;;;;;;;;;12.27;100.00;99768.50;5012363;28;20006;-72
2023/10/22 01:52:18;;;;;;;;;;;;;;;12.08;100.00;99760.59;5008209;28;20286;-75
2023/10/22 01:54:43;;;;;;;;;;;;;;;12.00;100.00;99770.31;5008769;28;19921;-75
2023/10/22 01:57:08;;;;;;;;;;;;;;;11.92;100.00;99770.19;5021348;28;19925;-74
2023/10/22 01:59:33;;;;;;;;;;;;;;;11.87;100.00;99785.94;5009957;28;20029;-72
2023/10/22 02:01:58;;;;;;;;;;;;;;;11.91;100.00;99778.44;5008548;28;19925;-78
2023/10/22 02:04:24;;;;;;;;;;;;;;;11.92;100.00;99780.97;5008463;28;20216;-73
2023/10/22 02:06:49;;;;;;;;;;;;;;;11.94;100.00;99780.78;5008263;28;19979;-76
2023/10/22 02:09:16;;;;;;;;;;;;;;;11.87;100.00;99798.56;5009692;28;19998;-75
2023/10/22 02:11:42;;;;;;;;;;;;;;;11.79;100.00;99794.78;5009415;28;19932;-74
2023/10/22 02:14:07;;;;;;;;;;;;;;;11.69;100.00;99797.56;5007756;28;20386;-72
2023/10/22 02:16:32;;;;;;;;;;;;;;;11.68;100.00;99808.44;5014087;28;20433;-73
2023/10/22 02:18:57;;;;;;;;;;;;;;;11.62;100.00;99806.38;5011165;28;20340;-73
2023/10/22 02:21:26;;;;;;;;;;;;;;;11.52;100.00;99820.72;5025190;28;19921;-75
2023/10/22 02:23:52;;;;;;;;;;;;;;;11.53;100.00;99822.41;5006775;28;19939;-73
2023/10/22 02:26:17;;;;;;;;;;;;;;;11.45;100.00;99837.59;5003206;28;20505;-73
2023/10/22 02:28:43;;;;;;;;;;;;;;;11.38;100.00;99838.19;5011995;28;20421;-72
2023/10/22 02:31:10;;;;;;;;;;;;;;;11.39;100.00;99845.28;5011211;28;19928;-77
2023/10/22 02:33:35;;;;;;;;;;;;;;;11.29;100.00;99852.53;5014269;28;19960;-73
2023/10/22 02:36:00;;;;;;;;;;;;;;;11.20;100.00;99866.88;5011273;28;20043;-72
2023/10/22 02:38:26;;;;;;;;;;;;;;;11.13;100.00;99855.84;5011165;28;20078;-74
2023/10/22 02:40:51;;;;;;;;;;;;;;;11.10;100.00;99874.97;5007323;28;19988;-72
2023/10/22 02:43:17;;;;;;;;;;;;;;;11.06;100.00;99876.25;4994550;28;20392;-74
2023/10/22 02:45:52;;;;;;;;;;;;;;;11.09;100.00;99882.16;5013619;28;20334;-73
2023/10/22 02:48:17;;;;;;;;;;;;;;;11.07;100.00;99894.06;5012381;28;20036;-72
2023/10/22 02:50:42;;;;;;;;;;;;;;;11.04;100.00;99902.41;5010692;28;19927;-73
2023/10/22 02:53:08;;;;;;;;;;;;;;;11.01;100.00;99906.22;5008536;28;20028;-75
2023/10/22 02:55:33;;;;;;;;;;;;;;;10.97;100.00;99922.75;5027817;28;19917;-73
2023/10/22 02:57:58;;;;;;;;;;;;;;;10.98;100.00;99913.72;5016485;28;19944;-76
2023/10/22 03:00:23;;;;;;;;;;;;;;;10.92;100.00;99924.03;5008887;28;20080;-75
2023/10/22 03:02:48;;;;;;;;;;;;;;;10.99;100.00;99923.47;5008923;28;19987;-74
2023/10/22 03:05:14;;;;;;;;;;;;;;;10.98;100.00;99933.38;5004804;28;19921;-75
2023/10/22 03:07:41;;;;;;;;;;;;;;;10.98;100.00;99932.53;5009643;28;19929;-75
2023/10/22 03:10:07;;;;;;;;;;;;;;;10.99;100.00;99936.91;5010337;28;19928;-75
2023/10/22 03:12:32;;;;;;;;;;;;;;;10.94;100.00;99934.66;5009791;28;19925;-76
2023/10/22 03:14:57;;;;;;;;;;;;;;;10.94;100.00;99940.03;5006629;28;20324;-75
2023/10/22 03:17:23;;;;;;;;;;;;;;;10.94;100.00;99940.84;5008779;28;20582;-77
2023/10/22 03:19:48;;;;;;;;;;;;;;;10.94;100.00;99954.28;5010338;28;20031;-72
2023/10/22 03:22:15;;;;;;;;;;;;;;;10.94;100.00;99961.50;5009228;28;19929;-76
2023/10/22 03:24:40;;;;;;;;;;;;;;;10.93;100.00;99965.19;5011128;28;20217;-74
2023/10/22 03:27:05;;;;;;;;;;;;;;;10.90;100.00;99966.31;5008733;28;19925;-77
2023/10/22 03:29:31;;;;;;;;;;;;;;;10.92;100.00;99966.19;5011558;28;19959;-74
2023/10/22 03:31:56;;;;;;;;;;;;;;;10.90;100.00;99982.41;5007684;28;20257;-75
2023/10/22 03:34:21;;;;;;;;;;;;;;;10.91;100.00;99978.75;4993354;28;20376;-77
2023/10/22 03:36:47;;;;;;;;;;;;;;;10.88;100.00;99979.03;5006573;28;20326;-74
2023/10/22 03:39:13;;;;;;;;;;;;;;;10.90;100.00;99985.09;5010563;28;20539;-73
2023/10/22 03:41:39;;;;;;;;;;;;;;;10.91;100.00;100005.59;5005871;28;20016;-78
2023/10/22 03:44:04;;;;;;;;;;;;;;;10.95;100.00;99998.13;5013505;28;20287;-78
2023/10/22 03:46:30;;;;;;;;;;;;;;;10.93;100.00;99997.41;4990631;28;20338;-76
2023/10/22 03:48:57;;;;;;;;;;;;;;;10.95;100.00;100014.25;5009569;28;19932;-77
2023/10/22 03:51:22;;;;;;;;;;;;;;;10.92;100.00;100014.53;5005887;28;19953;-76
2023/10/22 03:53:48;;;;;;;;;;;;;;;10.90;100.00;100021.88;5003120;28;19921;-73
2023/10/22 03:56:14;;;;;;;;;;;;;;;10.91;100.00;100034.31;5011292;28;19928;-74
2023/10/22 03:58:39;;;;;;;;;;;;;;;10.90;100.00;100032.63;5006494;28;19921;-75
2023/10/22 04:01:04;;;;;;;;;;;;;;;10.91;100.00;100029.78;5007008;28;19999;-76
2023/10/22 04:03:29;;;;;;;;;;;;;;;10.90;100.00;100043.34;5007833;28;19921;-78
2023/10/22 04:05:58;;;;;;;;;;;;;;;10.92;100.00;100049.44;5007399;28;20323;-72
2023/10/22 04:08:23;;;;;;;;;;;;;;;10.90;100.00;100048.72;5002446;28;20019;-74
2023/10/22 04:10:49;;;;;;;;;;;;;;;10.92;100.00;100069.06;5006174;28;19964;-73
2023/10/22 04:13:14;;;;;;;;;;;;;;;10.95;100.00;100063.41;5011853;28;19921;-76
2023/10/22 04:15:40;;;;;;;;;;;;;;;10.97;100.00;100076.72;5015839;28;19929;-76
2023/10/22 04:18:05;;;;;;;;;;;;;;;10.91;100.00;100074.59;4994873;28;20247;-73
2023/10/22 04:20:33;;;;;;;;;;;;;;;10.91;100.00;100078.13;5019966;28;19921;-76
2023/10/22 04:22:58;;;;;;;;;;;;;;;10.93;100.00;100084.19;5001390;28;20407;-74
2023/10/22 04:25:25;;;;;;;;;;;;;;;10.93;100.00;100096.78;5007559;28;19921;-73
2023/10/22 04:27:50;;;;;;;;;;;;;;;10.93;100.00;100089.56;5006872;28;20018;-74
2023/10/22 04:30:15;;;;;;;;;;;;;;;10.90;100.00;100099.75;5023838;28;20526;-76
2023/10/22 04:32:41;;;;;;;;;;;;;;;10.92;100.00;100097.78;5008922;28;20587;-73
2023/10/22 04:35:06;;;;;;;;;;;;;;;10.92;100.00;100101.28;5015796;28;20402;-76
2023/10/22 04:37:31;;;;;;;;;;;;;;;10.89;100.00;100106.09;5011850;28;20241;-75
2023/10/22 04:39:56;;;;;;;;;;;;;;;10.91;100.00;100102.28;5014618;28;19925;-75
2023/10/22 04:42:22;;;;;;;;;;;;;;;10.88;100.00;100107.09;5017626;28;19976;-76
2023/10/22 04:44:47;;;;;;;;;;;;;;;10.84;100.00;100119.09;5014685;28;20015;-79
2023/10/22 04:47:12;;;;;;;;;;;;;;;10.85;100.00;100126.16;5017197;28;19940;-73
2023/10/22 04:49:37;;;;;;;;;;;;;;;10.86;100.00;100127.88;5016971;28;19932;-74
2023/10/22 04:52:03;;;;;;;;;;;;;;;10.86;100.00;100135.94;5011548;28;20050;-73
2023/10/22 04:54:28;;;;;;;;;;;;;;;10.88;100.00;100131.25;5014836;28;20040;-72
2023/10/22 04:56:53;;;;;;;;;;;;;;;10.85;100.00;100143.16;5016740;28;19959;-75
2023/10/22 04:59:19;;;;;;;;;;;;;;;10.84;100.00;100149.50;5018589;28;19924;-73
2023/10/22 05:01:44;;;;;;;;;;;;;;;10.84;100.00;100154.00;5027676;28;20145;-73
2023/10/22 05:04:09;;;;;;;;;;;;;;;10.78;100.00;100145.50;5008116;28;19921;-73
2023/10/22 05:06:34;;;;;;;;;;;;;;;10.82;100.00;100150.63;4989701;28;19927;-74
2023/10/22 05:09:01;;;;;;;;;;;;;;;10.74;100.00;100156.69;5005342;28;19932;-73
2023/10/22 05:11:26;;;;;;;;;;;;;;;10.76;100.00;100163.59;5008954;28;19927;-73
2023/10/22 05:13:51;;;;;;;;;;;;;;;10.76;100.00;100158.22;5011971;28;19940;-73
2023/10/22 05:16:17;;;;;;;;;;;;;;;10.76;100.00;100165.44;5016622;28;19929;-73
2023/10/22 05:18:42;;;;;;;;;;;;;;;10.76;100.00;100170.81;5011049;28;21103;-73
2023/10/22 05:21:07;;;;;;;;;;;;;;;10.69;100.00;100188.44;5013176;28;19959;-74
2023/10/22 05:23:33;;;;;;;;;;;;;;;10.73;100.00;100177.28;4994645;28;20086;-75
2023/10/22 05:26:16;;;;;;;;;;;;;;;10.68;100.00;100192.13;5017070;28;20099;-73
2023/10/22 05:28:41;;;;;;;;;;;;;;;10.63;100.00;100188.00;5016915;28;20405;-73
2023/10/22 05:31:20;;;;;;;;;;;;;;;10.57;100.00;100195.75;5006438;28;19924;-73
2023/10/22 05:33:45;;;;;;;;;;;;;;;10.49;100.00;100208.00;5014631;28;20059;-71
2023/10/22 05:36:17;;;;;;;;;;;;;;;10.48;100.00;100213.53;5015457;28;19917;-73
2023/10/22 05:38:42;;;;;;;;;;;;;;;10.43;100.00;100227.34;5013075;28;19964;-75
2023/10/22 05:41:08;;;;;;;;;;;;;;;10.41;100.00;100223.97;5016020;28;20502;-74
2023/10/22 05:43:33;;;;;;;;;;;;;;;10.38;100.00;100234.91;5010163;28;20067;-73
2023/10/22 05:45:58;;;;;;;;;;;;;;;10.37;100.00;100243.94;5008077;28;19921;-72
2023/10/22 05:48:23;;;;;;;;;;;;;;;10.40;100.00;100253.59;5016363;28;19932;-75
2023/10/22 05:50:50;;;;;;;;;;;;;;;10.38;100.00;100256.38;5013499;28;19940;-74
2023/10/22 05:53:15;;;;;;;;;;;;;;;10.35;100.00;100253.97;5009532;28;20177;-73
2023/10/22 05:55:41;;;;;;;;;;;;;;;10.36;100.00;100258.34;5011131;28;19939;-72
2023/10/22 05:58:06;;;;;;;;;;;;;;;10.28;100.00;100260.84;5023395;28;20065;-72
2023/10/22 06:00:31;;;;;;;;;;;;;;;10.23;100.00;100271.97;5059131;22;20294;-74
2023/10/22 06:02:56;;;;;;;;;;;;;;;10.21;100.00;100271.25;5029695;28;19921;-78
2023/10/22 06:05:22;;;;;;;;;;;;;;;10.23;100.00;100276.47;5030688;28;19923;-73
2023/10/22 06:07:47;;;;;;;;;;;;;;;10.22;100.00;100278.31;5030209;28;20484;-72
2023/10/22 06:10:12;;;;;;;;;;;;;;;10.13;100.00;100279.09;5032274;28;20627;-72
2023/10/22 06:12:38;;;;;;;;;;;;;;;10.04;100.00;100278.03;5027442;28;19968;-73
2023/10/22 06:15:03;;;;;;;;;;;;;;;10.00;100.00;100284.66;5017798;28;20023;-74
2023/10/22 06:17:30;;;;;;;;;;;;;;;9.94;100.00;100288.69;5035273;28;19964;-73
2023/10/22 06:19:56;;;;;;;;;;;;;;;9.92;100.00;100279.09;5028759;28;19921;-74
2023/10/22 06:22:22;;;;;;;;;;;;;;;9.89;100.00;100286.41;5026524;28;19929;-73
2023/10/22 06:24:47;;;;;;;;;;;;;;;9.82;100.00;100304.00;5029503;28;19937;-73
2023/10/22 06:27:12;;;;;;;;;;;;;;;9.68;100.00;100280.16;5026317;28;19920;-74
2023/10/22 06:29:37;;;;;;;;;;;;;;;9.80;100.00;100315.84;5027401;28;20253;-73
2023/10/22 06:32:03;;;;;;;;;;;;;;;9.80;100.00;100314.00;5027642;28;19920;-73
2023/10/22 06:34:28;;;;;;;;;;;;;;;9.79;100.00;100322.16;5035979;28;19927;-72
2023/10/22 06:36:54;;;;;;;;;;;;;;;9.77;100.00;100326.81;5032665;28;20477;-73
2023/10/22 06:39:19;;;;;;;;;;;;;;;9.75;100.00;100334.97;5030801;28;19956;-72
2023/10/22 06:41:44;;;;;;;;;;;;;;;9.74;100.00;100335.94;5019029;28;19920;-73
2023/10/22 06:44:09;;;;;;;;;;;;;;;9.70;100.00;100342.53;5021571;28;19931;-73
2023/10/22 06:46:35;;;;;;;;;;;;;;;9.71;100.00;100342.41;5032241;28;19920;-72
2023/10/22 06:49:00;;;;;;;;;;;;;;;9.72;100.00;100345.94;5037830;28;20162;-73
2023/10/22 06:51:25;;;;;;;;;;;;;;;9.68;100.00;100357.88;5033079;28;20038;-73
2023/10/22 06:53:50;;;;;;;;;;;;;;;9.71;100.00;100349.59;5033440;28;20085;-72
2023/10/22 06:56:16;;;;;;;;;;;;;;;9.71;100.00;100352.28;5034324;28;20593;-73
2023/10/22 06:58:41;;;;;;;;;;;;;;;9.64;100.00;100356.44;5031434;28;20243;-73
2023/10/22 07:01:06;;;;;;;;;;;;;;;9.67;100.00;100365.09;5020224;28;19943;-73
2023/10/22 07:03:32;;;;;;;;;;;;;;;9.70;100.00;100370.19;5034941;28;19927;-73
2023/10/22 07:05:57;;;;;;;;;;;;;;;9.73;100.00;100379.81;5026666;28;19917;-73
2023/10/22 07:08:23;;;;;;;;;;;;;;;9.75;100.00;100380.53;5025639;28;19940;-73
2023/10/22 07:10:48;;;;;;;;;;;;;;;9.75;100.00;100391.25;5025199;28;20008;-73
2023/10/22 07:13:13;;;;;;;;;;;;;;;9.73;100.00;100391.41;5012776;28;20019;-73
2023/10/22 07:15:38;;;;;;;;;;;;;;;9.75;100.00;100399.31;5016129;28;19927;-73
2023/10/22 07:18:04;;;;;;;;;;;;;;;9.73;100.00;100401.25;5026359;28;19925;-73
2023/10/22 07:20:29;;;;;;;;;;;;;;;9.71;100.00;100408.56;5025985;28;19927;-73
2023/10/22 07:22:54;;;;;;;;;;;;;;;9.70;100.00;100414.91;5028741;28;19928;-73
2023/10/22 07:25:20;;;;;;;;;;;;;;;9.73;100.00;100412.84;5030522;28;19940;-73
2023/10/22 07:27:45;;;;;;;;;;;;;;;9.80;100.00;100420.41;5030152;28;19928;-73
2023/10/22 07:30:13;;;;;;;;;;;;;;;9.83;100.00;100420.13;5027616;28;21903;-74
2023/10/22 07:32:38;;;;;;;;;;;;;;;9.88;100.00;100423.28;5027688;28;19921;-72
2023/10/22 07:35:03;;;;;;;;;;;;;;;9.89;100.00;100428.53;5027635;28;19948;-73
2023/10/22 07:37:29;;;;;;;;;;;;;;;9.90;100.00;100427.56;5027589;28;20500;-73
2023/10/22 07:39:54;;;;;;;;;;;;;;;9.99;100.00;100436.69;5025975;28;19924;-73
2023/10/22 07:42:19;;;;;;;;;;;;;;;10.05;100.00;100438.00;5029498;28;19925;-73
2023/10/22 07:44:45;;;;;;;;;;;;;;;10.14;100.00;100434.56;5030253;28;19936;-72
2023/10/22 07:47:10;;;;;;;;;;;;;;;10.20;100.00;100449.28;5027759;28;20210;-72
2023/10/22 07:49:35;;;;;;;;;;;;;;;10.34;100.00;100438.25;5030448;28;19971;-73
2023/10/22 07:52:00;;;;;;;;;;;;;;;10.47;100.00;100440.78;5028451;28;20012;-72
2023/10/22 07:54:25;;;;;;;;;;;;;;;10.59;100.00;100449.69;5026333;28;19932;-72
2023/10/22 07:56:51;;;;;;;;;;;;;;;10.73;100.00;100456.53;5029590;28;19931;-74
2023/10/22 07:59:16;;;;;;;;;;;;;;;10.90;100.00;100455.09;5028046;28;19947;-72
2023/10/22 08:01:41;;;;;;;;;;;;;;;11.05;100.00;100450.25;5030220;28;19921;-72
2023/10/22 08:04:07;;;;;;;;;;;;;;;11.28;100.00;100458.16;5031090;28;19921;-72
2023/10/22 08:06:32;;;;;;;;;;;;;;;11.47;100.00;100457.41;5031644;28;19925;-72
2023/10/22 08:08:57;;;;;;;;;;;;;;;11.66;100.00;100450.38;5024507;28;19986;-72
2023/10/22 08:11:22;;;;;;;;;;;;;;;11.81;100.00;100449.03;5029996;28;20345;-74
2023/10/22 08:13:48;;;;;;;;;;;;;;;11.96;100.00;100448.63;5043123;28;20046;-73
2023/10/22 08:16:13;;;;;;;;;;;;;;;12.06;100.00;100446.00;5028087;28;19920;-73
2023/10/22 08:18:38;;;;;;;;;;;;;;;12.02;100.00;100455.34;5029403;28;19976;-72
2023/10/22 08:21:04;;;;;;;;;;;;;;;12.14;100.00;100455.09;5031610;28;20359;-72
2023/10/22 08:23:29;;;;;;;;;;;;;;;12.29;100.00;100455.53;5026499;28;19921;-73
2023/10/22 08:25:55;;;;;;;;;;;;;;;12.34;100.00;100467.72;5024346;28;19924;-74
2023/10/22 08:28:20;;;;;;;;;;;;;;;12.36;100.00;100469.28;5026279;28;20043;-72
2023/10/22 08:30:45;;;;;;;;;;;;;;;12.42;100.00;100466.03;5028136;28;20020;-73
2023/10/22 08:33:11;;;;;;;;;;;;;;;12.40;100.00;100470.72;5028018;28;19925;-72
2023/10/22 08:35:36;;;;;;;;;;;;;;;12.37;100.00;100470.13;5029479;28;19921;-73
2023/10/22 08:38:01;;;;;;;;;;;;;;;12.40;100.00;100483.31;5029661;28;20003;-75
2023/10/22 08:40:27;;;;;;;;;;;;;;;12.32;100.00;100481.31;5028901;28;19931;-74
2023/10/22 08:42:52;;;;;;;;;;;;;;;12.33;100.00;100498.31;5028424;28;19924;-72
2023/10/22 08:45:17;;;;;;;;;;;;;;;12.28;100.00;100496.03;5028950;28;19928;-73
2023/10/22 08:47:43;;;;;;;;;;;;;;;12.28;100.00;100496.91;5030699;28;19931;-72
2023/10/22 08:50:08;;;;;;;;;;;;;;;12.29;100.00;100503.13;5032405;28;19920;-73
2023/10/22 08:52:33;;;;;;;;;;;;;;;12.29;100.00;100501.31;5030436;28;19920;-73
2023/10/22 08:54:59;;;;;;;;;;;;;;;12.23;100.00;100509.94;5034158;28;20030;-72
2023/10/22 08:57:24;;;;;;;;;;;;;;;12.35;100.00;100516.03;5033579;28;20408;-73
2023/10/22 08:59:50;;;;;;;;;;;;;;;12.35;100.00;100524.13;5031530;28;19959;-72
2023/10/22 09:02:16;;;;;;;;;;;;;;;12.36;100.00;100523.13;5032951;28;20363;-72
2023/10/22 09:04:42;;;;;;;;;;;;;;;12.37;100.00;100522.13;5032778;28;20339;-71
2023/10/22 09:07:07;;;;;;;;;;;;;;;12.53;100.00;100531.50;5034567;28;19928;-72
2023/10/22 09:09:33;;;;;;;;;;;;;;;12.64;100.00;100527.81;5034770;28;20019;-73
2023/10/22 09:11:58;;;;;;;;;;;;;;;12.64;100.00;100536.78;5035140;28;20290;-72
2023/10/22 09:14:24;;;;;;;;;;;;;;;12.74;100.00;100537.59;5030441;28;20401;-73
2023/10/22 09:16:49;;;;;;;;;;;;;;;12.64;100.00;100546.69;5033492;28;19925;-73
2023/10/22 09:19:15;;;;;;;;;;;;;;;12.58;100.00;100550.78;5031869;28;19921;-72
2023/10/22 09:21:43;;;;;;;;;;;;;;;12.59;100.00;100541.72;5035691;28;19964;-73
2023/10/22 09:24:09;;;;;;;;;;;;;;;12.56;100.00;100544.69;5031052;28;20310;-72
2023/10/22 09:26:41;;;;;;;;;;;;;;;12.72;100.00;100541.44;5034322;28;19925;-73
2023/10/22 09:29:07;;;;;;;;;;;;;;;12.81;100.00;100548.69;5031923;28;19950;-72
2023/10/22 09:31:32;;;;;;;;;;;;;;;12.89;100.00;100554.19;5033263;28;20489;-74
2023/10/22 09:33:58;;;;;;;;;;;;;;;12.94;100.00;100548.41;5033420;28;19916;-71
2023/10/22 09:36:25;;;;;;;;;;;;;;;13.09;100.00;100547.97;5029199;28;19944;-71
2023/10/22 09:38:50;;;;;;;;;;;;;;;13.26;100.00;100563.41;5033163;28;20055;-71
2023/10/22 09:41:29;;;;;;;;;;;;;;;13.53;100.00;100560.97;5034788;28;20147;-72
2023/10/22 09:43:54;;;;;;;;;;;;;;;13.76;100.00;100553.41;5031329;28;19958;-72
2023/10/22 09:46:20;;;;;;;;;;;;;;;13.76;100.00;100564.19;5031767;28;20428;-72
2023/10/22 09:48:49;;;;;;;;;;;;;;;13.97;100.00;100561.25;5035843;28;19929;-72
2023/10/22 09:51:15;;;;;;;;;;;;;;;13.94;100.00;100566.94;5034311;28;19925;-72
2023/10/22 09:53:42;;;;;;;;;;;;;;;13.93;100.00;100574.19;5030408;28;20374;-71
2023/10/22 09:56:09;;;;;;;;;;;;;;;13.85;100.00;100571.38;5028827;28;19920;-72
2023/10/22 09:58:38;;;;;;;;;;;;;;;13.68;100.00;100578.41;5030866;28;20586;-72
2023/10/22 10:01:03;;;;;;;;;;;;;;;13.65;100.00;100579.56;5031536;28;19940;-72
2023/10/22 10:03:28;;;;;;;;;;;;;;;13.44;100.00;100592.38;5031178;28;19921;-71
2023/10/22 10:05:54;;;;;;;;;;;;;;;13.35;100.00;100583.28;5046450;28;19952;-73
2023/10/22 10:08:19;;;;;;;;;;;;;;;13.21;100.00;100587.25;5032748;28;20016;-72
2023/10/22 10:10:45;;;;;;;;;;;;;;;13.15;100.00;100580.56;5032961;28;19927;-73
2023/10/22 10:13:10;;;;;;;;;;;;;;;13.11;100.00;100587.25;5027570;28;20379;-72
2023/10/22 10:15:35;;;;;;;;;;;;;;;13.02;100.00;100597.03;5028458;28;20488;-73
2023/10/22 10:18:01;;;;;;;;;;;;;;;13.04;100.00;100605.00;5024685;28;20376;-73
2023/10/22 10:20:27;;;;;;;;;;;;;;;13.02;100.00;100602.44;5031965;28;19993;-73
2023/10/22 10:23:01;;;;;;;;;;;;;;;13.04;100.00;100616.63;5032299;28;19924;-72
2023/10/22 10:25:30;;;;;;;;;;;;;;;13.06;100.00;100611.09;5033667;28;19996;-73
2023/10/22 10:27:56;;;;;;;;;;;;;;;12.97;100.00;100617.31;5033488;28;19972;-75
2023/10/22 10:30:21;;;;;;;;;;;;;;;13.05;100.00;100625.56;5027138;28;20059;-72
2023/10/22 10:32:48;;;;;;;;;;;;;;;13.17;100.00;100621.72;5027445;28;19964;-72
2023/10/22 10:35:13;;;;;;;;;;;;;;;13.37;100.00;100623.56;5016427;28;19962;-71
2023/10/22 10:37:58;;;;;;;;;;;;;;;13.72;100.00;100622.13;5028766;28;20342;-72
2023/10/22 10:40:52;;;;;;;;;;;;;;;13.93;100.00;100613.81;5032045;28;19921;-72
2023/10/22 10:43:18;;;;;;;;;;;;;;;13.93;100.00;100616.53;5021622;28;19921;-74
2023/10/22 10:46:02;;;;;;;;;;;;;;;14.18;100.00;100622.25;5027007;28;19944;-72
2023/10/22 10:48:48;;;;;;;;;;;;;;;14.38;100.00;100614.91;5041080;28;19982;-73
2023/10/22 10:51:19;;;;;;;;;;;;;;;14.43;100.00;100626.13;5049002;28;19920;-72
2023/10/22 10:54:03;;;;;;;;;;;;;;;14.50;100.00;100616.44;5059496;28;20039;-72
2023/10/22 10:56:47;;;;;;;;;;;;;;;14.33;100.00;100615.38;5031747;28;19925;-72
2023/10/22 10:59:24;;;;;;;;;;;;;;;14.32;100.00;100610.97;5044947;28;19921;-72
2023/10/22 11:02:10;;;;;;;;;;;;;;;13.99;100.00;100617.81;5031615;28;19935;-73
2023/10/22 11:04:36;;;;;;;;;;;;;;;13.99;100.00;100615.94;5016409;28;19976;-73
2023/10/22 11:07:02;;;;;;;;;;;;;;;13.74;100.00;100625.53;5032148;28;19932;-72
2023/10/22 11:09:27;;;;;;;;;;;;;;;13.69;100.00;100630.53;5026445;28;19925;-72
2023/10/22 11:12:00;;;;;;;;;;;;;;;13.55;100.00;100624.56;5027496;28;19925;-72
2023/10/22 11:14:26;;;;;;;;;;;;;;;13.71;100.00;100629.38;5047179;28;20330;-71
2023/10/22 11:16:55;;;;;;;;;;;;;;;13.77;100.00;100639.59;5032957;28;19929;-72
2023/10/22 11:19:21;;;;;;;;;;;;;;;13.55;100.00;100646.16;5026893;28;20335;-71
2023/10/22 11:21:46;;;;;;;;;;;;;;;13.46;100.00;100650.56;5030356;28;20457;-71
2023/10/22 11:24:11;;;;;;;;;;;;;;;13.40;100.00;100645.69;5026520;28;20583;-71
2023/10/22 11:26:37;;;;;;;;;;;;;;;13.41;100.00;100646.59;5042043;28;20357;-71
2023/10/22 11:29:02;;;;;;;;;;;;;;;13.26;100.00;100649.66;5028998;28;20408;-71
2023/10/22 11:31:27;;;;;;;;;;;;;;;13.37;100.00;100651.41;5025825;28;20371;-71
2023/10/22 11:33:52;;;;;;;;;;;;;;;13.31;100.00;100655.50;5036170;28;20340;-71
2023/10/22 11:36:18;;;;;;;;;;;;;;;13.27;100.00;100650.53;5031772;28;20310;-71
2023/10/22 11:38:43;;;;;;;;;;;;;;;13.14;100.00;100657.03;5030123;28;20371;-71
2023/10/22 11:41:08;;;;;;;;;;;;;;;13.17;100.00;100659.47;5031630;28;20003;-71
2023/10/22 11:43:36;;;;;;;;;;;;;;;13.26;100.00;100665.00;5025701;28;20271;-71
2023/10/22 11:46:01;;;;;;;;;;;;;;;13.28;100.00;100663.03;5033298;28;19920;-71
2023/10/22 11:48:27;;;;;;;;;;;;;;;13.32;100.00;100669.84;5037335;28;20330;-70
2023/10/22 11:50:56;;;;;;;;;;;;;;;13.22;100.00;100664.44;5032937;28;19928;-72
2023/10/22 11:53:21;;;;;;;;;;;;;;;13.33;100.00;100671.56;5027588;28;19924;-71
2023/10/22 11:55:47;;;;;;;;;;;;;;;13.26;100.00;100686.56;5023967;28;19925;-71
2023/10/22 11:58:18;;;;;;;;;;;;;;;13.33;100.00;100680.47;5025907;28;20353;-72
2023/10/22 12:00:44;;;;;;;;;;;;;;;13.31;100.00;100689.72;5029627;28;19924;-72
2023/10/22 12:03:09;;;;;;;;;;;;;;;13.32;100.00;100676.06;5029063;28;19928;-69
2023/10/22 12:05:34;;;;;;;;;;;;;;;13.23;100.00;100687.72;5041757;28;19921;-70
2023/10/22 12:07:59;;;;;;;;;;;;;;;13.08;100.00;100692.66;5025978;28;19964;-70
2023/10/22 12:10:25;;;;;;;;;;;;;;;13.09;100.00;100694.38;5028377;28;20658;-73
2023/10/22 12:12:50;;;;;;;;;;;;;;;12.94;100.00;100690.34;5032386;28;20344;-73
2023/10/22 12:15:15;;;;;;;;;;;;;;;12.95;100.00;100698.31;5033705;28;19920;-70
2023/10/22 12:17:40;;;;;;;;;;;;;;;12.92;100.00;100693.22;5032436;28;19971;-71
2023/10/22 12:20:06;;;;;;;;;;;;;;;12.98;100.00;100684.53;5033017;28;19920;-69
2023/10/22 12:22:31;;;;;;;;;;;;;;;12.93;100.00;100694.03;5032843;28;19983;-71
2023/10/22 12:24:57;;;;;;;;;;;;;;;12.79;100.00;100692.59;5034575;28;19943;-71